Time;durP1;ratioP1;P1;durP2;ratioP2;P2;SDS_P1;SDS_P2;PMS_P1;PMS_P2;Temp;Humidity;BMP_temperature;BMP_pressure;BME280_temperature;BME280_humidity;BME280_pressure;Samples;Min_cycle;Max_cycle;Signal;HPM_P1;HPM_P2
2023/01/04 00:00:34;;;;;;;5.60;0.90;;;9.00;99.90;;;;;;5075140;28;20032;-74
2023/01/04 00:03:00;;;;;;;6.70;0.85;;;9.00;99.90;;;;;;5072500;28;20032;-73
2023/01/04 00:05:25;;;;;;;4.63;0.73;;;8.90;99.90;;;;;;5060855;28;20941;-74
2023/01/04 00:07:51;;;;;;;6.28;1.00;;;8.90;99.90;;;;;;5068767;28;20106;-73
2023/01/04 00:10:17;;;;;;;4.28;0.93;;;8.90;99.90;;;;;;5072389;28;20400;-74
2023/01/04 00:12:42;;;;;;;4.63;1.05;;;8.90;99.90;;;;;;5063519;28;20447;-74
2023/01/04 00:15:08;;;;;;;4.18;1.35;;;8.80;99.90;;;;;;5065234;28;20045;-73
2023/01/04 00:17:34;;;;;;;8.18;0.75;;;8.80;99.90;;;;;;5064709;28;20021;-74
2023/01/04 00:19:59;;;;;;;5.03;0.60;;;8.80;99.90;;;;;;5071348;28;20399;-74
2023/01/04 00:22:25;;;;;;;3.88;0.63;;;8.80;99.90;;;;;;5064982;28;20393;-74
2023/01/04 00:24:50;;;;;;;8.02;1.20;;;8.80;99.90;;;;;;5070805;28;20087;-74
2023/01/04 00:27:16;;;;;;;6.38;0.75;;;8.80;99.90;;;;;;5081908;28;20056;-74
2023/01/04 00:29:41;;;;;;;6.60;0.90;;;8.80;99.90;;;;;;5054896;28;20033;-74
2023/01/04 00:32:07;;;;;;;6.53;0.82;;;8.70;99.90;;;;;;5057538;28;20033;-74
2023/01/04 00:34:32;;;;;;;3.78;0.70;;;8.80;99.90;;;;;;5058499;28;20032;-74
2023/01/04 00:36:58;;;;;;;6.43;0.90;;;8.80;99.90;;;;;;5067027;28;20112;-74
2023/01/04 00:39:24;;;;;;;4.10;1.17;;;8.80;99.90;;;;;;5057903;28;20104;-74
2023/01/04 00:41:53;;;;;;;4.30;0.70;;;8.70;99.90;;;;;;5064001;28;20052;-74
2023/01/04 00:44:22;;;;;;;9.88;1.67;;;8.70;99.90;;;;;;5057698;28;20066;-73
2023/01/04 00:46:47;;;;;;;5.28;1.02;;;8.80;99.90;;;;;;5073518;28;20040;-74
2023/01/04 00:49:13;;;;;;;4.32;0.90;;;8.70;99.90;;;;;;5070205;28;20028;-73
2023/01/04 00:51:40;;;;;;;8.63;1.52;;;8.80;99.90;;;;;;5061654;28;20012;-73
2023/01/04 00:54:11;;;;;;;7.97;1.10;;;8.70;99.90;;;;;;5065785;28;20481;-74
2023/01/04 00:56:36;;;;;;;4.18;0.70;;;8.70;99.90;;;;;;5064332;28;20032;-74
2023/01/04 00:59:03;;;;;;;4.57;1.10;;;8.70;99.90;;;;;;5055223;28;20036;-74
2023/01/04 01:01:30;;;;;;;6.35;1.00;;;8.70;99.90;;;;;;5060335;28;20064;-74
2023/01/04 01:03:58;;;;;;;6.85;1.02;;;8.70;99.90;;;;;;5063964;28;20086;-74
2023/01/04 01:06:25;;;;;;;4.47;0.80;;;8.70;99.90;;;;;;5060313;28;20071;-74
2023/01/04 01:08:51;;;;;;;9.02;1.50;;;8.70;99.90;;;;;;5061891;28;20032;-74
2023/01/04 01:11:17;;;;;;;9.23;0.93;;;8.70;99.90;;;;;;5069540;28;20074;-73
2023/01/04 01:13:43;;;;;;;5.03;1.00;;;8.70;99.90;;;;;;5064631;28;20526;-74
2023/01/04 01:16:15;;;;;;;7.15;0.98;;;8.80;99.90;;;;;;5072527;28;20055;-74
2023/01/04 01:18:41;;;;;;;3.33;0.88;;;8.80;99.90;;;;;;5070233;28;20033;-74
2023/01/04 01:21:10;;;;;;;5.95;1.05;;;8.80;99.90;;;;;;5069546;28;20031;-74
2023/01/04 01:23:36;;;;;;;6.47;0.80;;;8.80;99.90;;;;;;5058309;28;20050;-74
2023/01/04 01:26:04;;;;;;;6.25;0.77;;;8.90;99.90;;;;;;5065552;28;20472;-74
2023/01/04 01:28:30;;;;;;;2.95;1.13;;;8.90;99.90;;;;;;5063648;28;20376;-75
2023/01/04 01:30:58;;;;;;;4.63;1.20;;;8.90;99.90;;;;;;5064133;28;20039;-74
2023/01/04 01:33:24;;;;;;;5.90;1.08;;;8.90;99.90;;;;;;5067537;28;20069;-74
2023/01/04 01:35:50;;;;;;;4.55;0.80;;;9.00;99.90;;;;;;5069834;28;20025;-74
2023/01/04 01:38:15;;;;;;;6.40;0.98;;;9.00;99.90;;;;;;5065660;28;20029;-74
2023/01/04 01:40:41;;;;;;;2.40;0.77;;;9.00;99.90;;;;;;5059302;28;20044;-74
2023/01/04 01:43:48;;;;;;;4.15;0.90;;;9.10;99.90;;;;;;5056062;28;20797;-74
2023/01/04 01:46:17;;;;;;;4.40;0.85;;;9.10;99.90;;;;;;5058577;28;20049;-74
2023/01/04 01:48:43;;;;;;;3.63;0.65;;;9.10;99.90;;;;;;5059513;28;20023;-74
2023/01/04 01:51:10;;;;;;;7.65;0.80;;;9.10;99.90;;;;;;5046401;28;20127;-73
2023/01/04 01:53:39;;;;;;;2.72;0.60;;;9.10;99.90;;;;;;5063078;28;20121;-74
2023/01/04 01:56:07;;;;;;;4.57;1.40;;;9.10;99.90;;;;;;5065806;28;20025;-74
2023/01/04 01:58:42;;;;;;;1.67;0.45;;;9.20;99.90;;;;;;5076802;28;20024;-74
2023/01/04 02:01:08;;;;;;;2.33;0.65;;;9.20;99.90;;;;;;5054249;28;20037;-74
2023/01/04 02:03:41;;;;;;;1.88;0.52;;;9.30;99.90;;;;;;5064186;28;20064;-74
2023/01/04 02:06:16;;;;;;;3.92;0.75;;;9.30;99.90;;;;;;5061162;28;20485;-74
2023/01/04 02:08:42;;;;;;;2.75;0.60;;;9.30;99.90;;;;;;5052058;28;20380;-74
2023/01/04 02:11:09;;;;;;;5.00;0.63;;;9.30;99.90;;;;;;5045384;28;20044;-74
2023/01/04 02:16:37;;;;;;;1.35;0.50;;;9.40;99.90;;;;;;5058471;28;20051;-74
2023/01/04 02:19:33;;;;;;;4.03;0.55;;;9.40;99.90;;;;;;5064068;28;20041;-74
2023/01/04 02:22:43;;;;;;;2.60;0.60;;;9.40;99.90;;;;;;5058366;28;20028;-74
2023/01/04 02:25:25;;;;;;;1.58;0.50;;;9.40;99.90;;;;;;5055513;28;20028;-74
2023/01/04 02:28:28;;;;;;;1.80;0.60;;;9.40;99.90;;;;;;5050076;28;20013;-73
2023/01/04 02:31:06;;;;;;;1.90;0.50;;;9.40;99.90;;;;;;5068486;28;20286;-74
2023/01/04 02:33:38;;;;;;;4.72;0.65;;;9.40;99.90;;;;;;5053360;28;20036;-74
2023/01/04 02:36:36;;;;;;;1.55;0.50;;;9.40;99.90;;;;;;5075366;28;20033;-74
2023/01/04 02:39:13;;;;;;;1.77;0.50;;;9.40;99.90;;;;;;5071949;28;20147;-74
2023/01/04 02:41:56;;;;;;;1.25;0.50;;;9.50;99.90;;;;;;5063902;28;20166;-76
2023/01/04 02:44:52;;;;;;;1.55;0.50;;;9.50;99.90;;;;;;5077554;28;20484;-75
2023/01/04 02:50:30;;;;;;;2.83;0.52;;;9.50;99.90;;;;;;5062627;28;20059;-74
2023/01/04 02:53:03;;;;;;;4.80;0.50;;;9.50;99.90;;;;;;5063666;28;20131;-73
2023/01/04 02:55:54;;;;;;;2.50;0.40;;;9.50;99.90;;;;;;5056277;28;20064;-74
2023/01/04 02:58:56;;;;;;;1.55;0.40;;;9.60;99.90;;;;;;5036960;28;20041;-74
2023/01/04 03:07:47;;;;;;;1.98;0.40;;;9.70;99.90;;;;;;5056436;28;20040;-74
2023/01/04 03:10:34;;;;;;;1.30;0.60;;;9.70;99.90;;;;;;5073369;28;20099;-74
2023/01/04 03:13:35;;;;;;;2.95;0.40;;;9.70;99.90;;;;;;5061201;28;20040;-74
2023/01/04 03:16:09;;;;;;;2.67;0.40;;;9.70;99.90;;;;;;5060077;28;20025;-74
2023/01/04 03:18:42;;;;;;;1.63;0.50;;;9.70;99.90;;;;;;5058725;28;20020;-74
2023/01/04 03:21:12;;;;;;;0.82;0.30;;;9.70;99.90;;;;;;5070050;28;20135;-74
2023/01/04 03:35:26;;;;;;;2.65;0.50;;;9.80;99.90;;;;;;5061035;28;20052;-74
2023/01/04 03:49:47;;;;;;;1.40;0.43;;;10.00;99.90;;;;;;5061341;28;20043;-74
2023/01/04 03:52:14;;;;;;;4.00;0.70;;;10.00;99.90;;;;;;5051879;28;20380;-74
2023/01/04 03:54:43;;;;;;;1.83;0.52;;;10.00;99.90;;;;;;5065952;28;20036;-74
2023/01/04 03:57:10;;;;;;;2.53;0.50;;;10.10;99.90;;;;;;5075066;28;20021;-75
2023/01/04 03:59:40;;;;;;;2.92;0.50;;;10.10;99.90;;;;;;5054664;28;20024;-74
2023/01/04 04:02:12;;;;;;;3.08;0.70;;;10.10;99.90;;;;;;5066909;28;20381;-74
2023/01/04 04:10:07;;;;;;;2.13;0.90;;;10.20;99.90;;;;;;5060800;28;20056;-74
2023/01/04 04:12:33;;;;;;;1.90;0.80;;;10.20;99.90;;;;;;5058411;28;20082;-74
2023/01/04 04:14:58;;;;;;;4.32;0.90;;;10.30;99.90;;;;;;5061988;28;20506;-75
2023/01/04 04:17:24;;;;;;;2.75;1.05;;;10.30;99.90;;;;;;5062805;28;20095;-75
2023/01/04 04:19:50;;;;;;;3.80;0.80;;;10.30;99.90;;;;;;5061656;28;20146;-74
2023/01/04 04:22:15;;;;;;;2.08;0.93;;;10.40;99.90;;;;;;5066764;28;20404;-74
2023/01/04 04:24:41;;;;;;;2.88;0.88;;;10.40;99.90;;;;;;5079640;28;20075;-74
2023/01/04 04:27:06;;;;;;;3.45;0.90;;;10.50;99.90;;;;;;5082371;28;20025;-74
2023/01/04 04:29:32;;;;;;;1.63;0.80;;;10.50;99.90;;;;;;5063097;28;20020;-73
2023/01/04 04:31:57;;;;;;;2.05;0.88;;;10.50;99.90;;;;;;5053632;28;20036;-74
2023/01/04 04:34:23;;;;;;;2.88;1.25;;;10.50;99.90;;;;;;5051859;28;20041;-74
2023/01/04 04:36:48;;;;;;;1.77;0.90;;;10.60;99.90;;;;;;5062207;28;20040;-74
2023/01/04 04:39:14;;;;;;;3.42;0.82;;;10.50;99.90;;;;;;5069399;28;20059;-74
2023/01/04 04:41:42;;;;;;;1.55;0.60;;;10.60;99.90;;;;;;5067128;28;20041;-74
2023/01/04 04:44:17;;;;;;;1.55;0.73;;;10.60;99.90;;;;;;5058519;28;20046;-75
2023/01/04 04:46:44;;;;;;;1.75;0.73;;;10.50;99.90;;;;;;5055733;28;20457;-74
2023/01/04 04:49:10;;;;;;;2.85;0.73;;;10.60;99.90;;;;;;5066412;28;20036;-74
2023/01/04 04:51:36;;;;;;;3.05;0.90;;;10.60;99.90;;;;;;5064629;28;20475;-74
2023/01/04 04:54:03;;;;;;;3.58;0.80;;;10.60;99.90;;;;;;5050960;28;20479;-73
2023/01/04 04:56:29;;;;;;;3.45;0.85;;;10.60;99.90;;;;;;5051536;28;20053;-74
2023/01/04 04:58:55;;;;;;;3.35;0.60;;;10.60;99.90;;;;;;5035172;28;20075;-74
2023/01/04 05:01:20;;;;;;;2.58;0.90;;;10.60;99.90;;;;;;5058181;28;20025;-74
2023/01/04 05:03:46;;;;;;;3.65;0.93;;;10.60;99.90;;;;;;5057756;28;20035;-74
2023/01/04 05:06:12;;;;;;;5.20;0.90;;;10.60;99.90;;;;;;5067787;28;20029;-73
2023/01/04 05:08:37;;;;;;;2.25;0.88;;;10.70;99.90;;;;;;5064058;28;20025;-72
2023/01/04 05:11:08;;;;;;;2.80;0.95;;;10.70;99.90;;;;;;5051450;28;20052;-72
2023/01/04 05:13:34;;;;;;;2.50;0.80;;;10.70;99.90;;;;;;5065017;28;20095;-72
2023/01/04 05:16:01;;;;;;;2.08;0.93;;;10.70;99.90;;;;;;5052332;28;20416;-72
2023/01/04 05:18:26;;;;;;;3.17;0.90;;;10.70;99.90;;;;;;5068565;28;20032;-72
2023/01/04 05:20:52;;;;;;;3.58;1.48;;;10.70;99.90;;;;;;5065435;28;20077;-72
2023/01/04 05:23:20;;;;;;;2.80;0.98;;;10.70;99.90;;;;;;5065190;28;20049;-72
2023/01/04 05:26:06;;;;;;;3.33;1.05;;;10.70;99.90;;;;;;5056210;28;20376;-72
2023/01/04 05:28:31;;;;;;;2.53;0.98;;;10.70;99.90;;;;;;5059087;28;20060;-72
2023/01/04 05:30:57;;;;;;;4.97;1.00;;;10.70;99.90;;;;;;5065185;28;20126;-72
2023/01/04 05:33:25;;;;;;;3.22;1.13;;;10.80;99.90;;;;;;5077628;28;20393;-72
2023/01/04 05:35:52;;;;;;;4.43;1.27;;;10.70;99.90;;;;;;5059313;28;20085;-74
2023/01/04 05:38:18;;;;;;;6.25;1.02;;;10.80;99.90;;;;;;5065655;28;20024;-74
2023/01/04 05:40:44;;;;;;;2.17;0.90;;;10.80;99.90;;;;;;5050486;28;20385;-74
2023/01/04 05:43:12;;;;;;;3.65;0.93;;;10.80;99.90;;;;;;5054676;28;20025;-74
2023/01/04 05:45:38;;;;;;;2.78;1.05;;;10.80;99.90;;;;;;5061765;28;20104;-74
2023/01/04 05:48:04;;;;;;;4.13;1.05;;;10.80;99.90;;;;;;5056852;28;20021;-74
2023/01/04 05:50:29;;;;;;;3.30;1.10;;;10.80;99.90;;;;;;5053144;28;20033;-74
2023/01/04 05:52:55;;;;;;;2.75;0.90;;;10.80;99.90;;;;;;5061206;28;20039;-74
2023/01/04 05:55:20;;;;;;;2.03;0.90;;;10.80;99.90;;;;;;5050949;28;20064;-72
2023/01/04 05:57:46;;;;;;;1.58;0.80;;;10.90;99.90;;;;;;5055871;28;20017;-72
2023/01/04 06:00:13;;;;;;;2.45;0.80;;;10.80;99.90;;;;;;5046397;28;20383;-72
2023/01/04 06:02:40;;;;;;;1.95;0.90;;;10.80;99.90;;;;;;5063677;28;20448;-73
2023/01/04 06:05:06;;;;;;;3.85;1.58;;;10.90;99.90;;;;;;5057478;28;20025;-72
2023/01/04 06:07:32;;;;;;;3.50;0.77;;;10.90;99.90;;;;;;5054288;28;20036;-73
2023/01/04 06:09:57;;;;;;;1.77;0.98;;;10.90;99.90;;;;;;5073284;28;20040;-73
2023/01/04 06:12:23;;;;;;;1.50;0.80;;;10.90;99.90;;;;;;5061340;28;20044;-72
2023/01/04 06:14:49;;;;;;;3.63;1.02;;;10.90;99.90;;;;;;5052471;28;20045;-72
2023/01/04 06:17:14;;;;;;;1.67;0.70;;;10.90;99.90;;;;;;5079143;28;20020;-73
2023/01/04 06:19:40;;;;;;;3.38;0.70;;;10.90;99.90;;;;;;5074222;28;20041;-73
2023/01/04 06:22:06;;;;;;;2.65;0.85;;;11.00;99.90;;;;;;5062917;28;20357;-73
2023/01/04 06:24:35;;;;;;;2.05;1.05;;;11.00;99.90;;;;;;5068224;28;20032;-73
2023/01/04 06:27:02;;;;;;;1.95;0.75;;;11.00;99.90;;;;;;5070099;28;20515;-73
2023/01/04 06:29:27;;;;;;;4.03;0.90;;;11.10;99.90;;;;;;5056580;28;20274;-73
2023/01/04 06:31:54;;;;;;;3.20;1.00;;;11.10;99.90;;;;;;5059035;28;20033;-73
2023/01/04 06:34:19;;;;;;;3.63;0.90;;;11.10;99.90;;;;;;5051258;28;20481;-73
2023/01/04 06:36:45;;;;;;;2.38;1.02;;;11.10;99.90;;;;;;5052954;28;20029;-73
2023/01/04 06:39:11;;;;;;;2.20;0.77;;;11.20;99.90;;;;;;5073372;28;20025;-73
2023/01/04 06:41:36;;;;;;;2.20;0.93;;;11.20;99.90;;;;;;5060625;28;20044;-73
2023/01/04 06:44:02;;;;;;;3.72;0.70;;;11.30;99.90;;;;;;5065887;28;20411;-72
2023/01/04 06:46:28;;;;;;;3.83;0.90;;;11.30;99.90;;;;;;5076097;28;20395;-72
2023/01/04 06:48:53;;;;;;;3.05;0.90;;;11.30;99.90;;;;;;5075962;28;20032;-73
2023/01/04 06:51:19;;;;;;;7.85;0.88;;;11.30;99.90;;;;;;5069104;28;20469;-72
2023/01/04 06:53:45;;;;;;;3.13;0.80;;;11.40;99.90;;;;;;5094696;28;20032;-73
2023/01/04 06:56:11;;;;;;;2.42;0.70;;;11.40;99.90;;;;;;5082997;28;20036;-73
2023/01/04 06:58:37;;;;;;;4.13;0.80;;;11.40;99.90;;;;;;5061894;28;20031;-73
2023/01/04 07:01:03;;;;;;;2.20;0.77;;;11.40;99.90;;;;;;5057552;28;20028;-73
2023/01/04 07:03:29;;;;;;;4.03;0.80;;;11.50;99.90;;;;;;5069213;28;20487;-73
2023/01/04 07:05:54;;;;;;;3.63;0.77;;;11.50;99.90;;;;;;5063236;28;20095;-73
2023/01/04 07:08:20;;;;;;;2.13;0.60;;;11.50;99.90;;;;;;5064610;28;20069;-74
2023/01/04 07:10:45;;;;;;;2.47;0.60;;;11.50;99.90;;;;;;5053823;28;20036;-73
2023/01/04 07:13:12;;;;;;;1.40;0.60;;;11.60;99.90;;;;;;5056888;28;20215;-72
2023/01/04 07:15:38;;;;;;;2.17;0.47;;;11.50;99.90;;;;;;5073901;28;20472;-72
2023/01/04 07:18:03;;;;;;;1.00;0.50;;;11.50;99.90;;;;;;5066173;28;20033;-73
2023/01/04 07:20:29;;;;;;;4.07;0.50;;;11.50;99.90;;;;;;5056134;28;20464;-74
2023/01/04 07:22:55;;;;;;;3.60;0.50;;;11.60;99.90;;;;;;5060474;28;20025;-73
2023/01/04 07:25:21;;;;;;;1.55;0.57;;;11.60;99.90;;;;;;5059382;28;20465;-74
2023/01/04 07:27:51;;;;;;;1.33;0.60;;;11.60;99.90;;;;;;5070299;28;20020;-75
2023/01/04 07:30:17;;;;;;;5.82;0.70;;;11.60;99.90;;;;;;5071970;28;20050;-76
2023/01/04 07:32:43;;;;;;;1.80;1.00;;;11.60;99.90;;;;;;5069967;28;20186;-74
2023/01/04 07:35:08;;;;;;;2.15;0.75;;;11.60;99.90;;;;;;5075551;28;20044;-74
2023/01/04 07:37:34;;;;;;;1.88;0.52;;;11.60;99.90;;;;;;5054401;28;20029;-74
2023/01/04 07:39:59;;;;;;;2.90;0.70;;;11.60;99.90;;;;;;5056814;28;20024;-73
2023/01/04 07:42:25;;;;;;;3.20;0.77;;;11.50;99.90;;;;;;5072169;28;20064;-74
2023/01/04 07:44:50;;;;;;;2.25;0.82;;;11.50;99.90;;;;;;5067140;28;20483;-74
2023/01/04 07:47:16;;;;;;;4.93;1.10;;;11.60;99.90;;;;;;5067722;28;20025;-74
2023/01/04 07:49:42;;;;;;;4.05;0.90;;;11.60;99.90;;;;;;5055781;28;20044;-74
2023/01/04 07:52:07;;;;;;;2.33;1.02;;;11.60;99.90;;;;;;5062882;28;20028;-73
2023/01/04 07:54:33;;;;;;;3.60;0.95;;;11.60;99.90;;;;;;5062763;28;20033;-73
2023/01/04 07:56:58;;;;;;;3.00;0.85;;;11.60;99.90;;;;;;5063503;28;20032;-73
2023/01/04 07:59:24;;;;;;;3.80;1.20;;;11.60;99.90;;;;;;5075507;28;20029;-74
2023/01/04 08:01:49;;;;;;;4.75;0.90;;;11.70;99.90;;;;;;5067403;28;20036;-73
2023/01/04 08:04:15;;;;;;;3.38;1.05;;;11.70;99.90;;;;;;5053873;28;20025;-74
2023/01/04 08:06:42;;;;;;;3.38;1.08;;;11.70;99.90;;;;;;5082110;28;20024;-74
2023/01/04 08:09:10;;;;;;;3.58;1.00;;;11.70;99.90;;;;;;5072898;28;20025;-74
2023/01/04 08:11:35;;;;;;;2.97;0.93;;;11.70;99.90;;;;;;5057128;28;20033;-74
2023/01/04 08:14:02;;;;;;;2.78;0.70;;;11.70;99.90;;;;;;5075868;28;20028;-74
2023/01/04 08:16:34;;;;;;;3.42;0.68;;;11.80;99.90;;;;;;5092796;28;20039;-74
2023/01/04 08:19:03;;;;;;;2.17;0.55;;;11.80;99.90;;;;;;5074642;28;20033;-74
2023/01/04 08:21:30;;;;;;;2.50;0.70;;;11.90;99.90;;;;;;5066535;28;20489;-75
2023/01/04 08:23:55;;;;;;;2.70;0.52;;;11.90;99.90;;;;;;5069609;28;20028;-74
2023/01/04 08:26:21;;;;;;;2.10;0.50;;;11.90;99.90;;;;;;5072801;28;20375;-74
2023/01/04 08:28:48;;;;;;;2.85;0.60;;;11.90;99.90;;;;;;5057017;28;20056;-74
2023/01/04 08:31:20;;;;;;;4.35;0.50;;;11.90;99.90;;;;;;5055515;28;20039;-74
2023/01/04 08:33:46;;;;;;;5.13;0.50;;;11.90;99.90;;;;;;5069927;28;20032;-73
2023/01/04 08:36:24;;;;;;;1.55;0.40;;;11.90;99.90;;;;;;5069760;28;20079;-73
2023/01/04 08:38:52;;;;;;;2.47;0.40;;;12.00;99.90;;;;;;5087841;28;20040;-74
2023/01/04 08:41:19;;;;;;;1.75;0.60;;;12.00;99.90;;;;;;5092694;28;20048;-74
2023/01/04 08:43:45;;;;;;;1.45;0.35;;;12.00;99.90;;;;;;5085902;28;20016;-74
2023/01/04 08:46:12;;;;;;;0.57;0.30;;;12.00;99.90;;;;;;5063032;28;20047;-74
2023/01/04 08:48:38;;;;;;;5.15;0.70;;;12.00;99.90;;;;;;5073920;28;20038;-74
2023/01/04 08:51:06;;;;;;;1.98;0.40;;;12.00;99.90;;;;;;5074834;28;20047;-74
2023/01/04 08:53:33;;;;;;;3.95;0.50;;;12.00;99.90;;;;;;5088255;28;20430;-74
2023/01/04 08:55:59;;;;;;;1.63;0.40;;;12.00;99.90;;;;;;5066354;28;20017;-74
2023/01/04 08:58:28;;;;;;;3.85;0.50;;;12.00;99.90;;;;;;5035346;28;20369;-74
2023/01/04 09:00:59;;;;;;;3.47;0.60;;;12.00;99.90;;;;;;5063345;28;20088;-73
2023/01/04 09:03:25;;;;;;;5.03;0.57;;;12.00;99.90;;;;;;5055468;28;20021;-74
2023/01/04 09:05:50;;;;;;;2.72;0.63;;;12.00;99.90;;;;;;5050948;28;20075;-74
2023/01/04 09:08:16;;;;;;;3.25;0.55;;;12.10;99.90;;;;;;5070873;28;20024;-74
2023/01/04 09:10:41;;;;;;;5.22;0.80;;;12.10;99.90;;;;;;5050989;28;20057;-74
2023/01/04 09:13:07;;;;;;;3.58;1.15;;;12.10;99.90;;;;;;5086864;28;20028;-74
2023/01/04 09:15:40;;;;;;;5.00;0.70;;;12.10;99.90;;;;;;5069216;28;20443;-74
2023/01/04 09:18:10;;;;;;;4.88;0.80;;;12.10;99.90;;;;;;5063338;28;20025;-74
2023/01/04 09:20:36;;;;;;;5.60;0.90;;;12.10;99.90;;;;;;5051249;28;20017;-74
2023/01/04 09:23:02;;;;;;;5.93;1.00;;;12.10;99.90;;;;;;5051402;28;20564;-74
2023/01/04 09:25:28;;;;;;;3.25;0.73;;;12.10;99.90;;;;;;5078506;28;20111;-73
2023/01/04 09:27:54;;;;;;;3.92;0.95;;;12.10;99.90;;;;;;5062905;28;20108;-74
2023/01/04 09:30:19;;;;;;;4.03;0.82;;;12.10;99.90;;;;;;5051668;28;20021;-74
2023/01/04 09:32:45;;;;;;;4.85;0.80;;;12.10;99.90;;;;;;5051990;28;20025;-74
2023/01/04 09:35:11;;;;;;;2.05;0.95;;;12.10;99.90;;;;;;5074366;28;20404;-74
2023/01/04 09:37:37;;;;;;;3.38;0.60;;;12.00;99.90;;;;;;5057430;28;20025;-74
2023/01/04 09:40:02;;;;;;;3.00;0.70;;;12.00;99.90;;;;;;5049196;28;20511;-73
2023/01/04 09:42:32;;;;;;;6.18;0.73;;;12.00;99.90;;;;;;5058695;28;20072;-74
2023/01/04 09:45:08;;;;;;;4.35;0.80;;;12.00;99.90;;;;;;5062253;28;20032;-74
2023/01/04 09:47:40;;;;;;;4.03;0.90;;;12.00;99.90;;;;;;5063672;28;20106;-74
2023/01/04 09:50:12;;;;;;;2.53;0.90;;;12.00;99.90;;;;;;5051065;28;20028;-74
2023/01/04 09:52:58;;;;;;;3.92;0.70;;;12.00;99.90;;;;;;5057195;28;20037;-74
2023/01/04 09:55:36;;;;;;;5.22;0.90;;;12.00;99.90;;;;;;5068655;28;20043;-73
2023/01/04 09:58:14;;;;;;;4.18;0.70;;;12.00;99.90;;;;;;5054158;28;20029;-74
2023/01/04 10:00:45;;;;;;;3.50;0.68;;;12.00;99.90;;;;;;5070852;28;20020;-74
2023/01/04 10:03:10;;;;;;;2.65;0.60;;;12.00;99.90;;;;;;5074813;28;20036;-74
2023/01/04 10:05:36;;;;;;;4.18;0.70;;;11.90;99.90;;;;;;5061488;28;20056;-75
2023/01/04 10:08:02;;;;;;;3.15;1.20;;;12.00;99.90;;;;;;5073653;28;20384;-74
2023/01/04 10:10:47;;;;;;;3.13;0.70;;;12.00;99.90;;;;;;5062555;28;20506;-74
2023/01/04 10:13:47;;;;;;;4.90;0.88;;;12.00;99.90;;;;;;5066298;28;20103;-74
2023/01/04 10:16:37;;;;;;;4.60;1.60;;;11.90;99.90;;;;;;5087609;28;20042;-74
2023/01/04 10:19:02;;;;;;;2.83;0.80;;;11.90;99.90;;;;;;5049258;28;20589;-74
2023/01/04 10:21:37;;;;;;;2.60;0.95;;;11.90;99.90;;;;;;5052928;28;20060;-75
2023/01/04 10:24:35;;;;;;;1.83;0.70;;;11.90;99.90;;;;;;5065443;28;20025;-74
2023/01/04 10:27:09;;;;;;;2.42;0.90;;;11.90;99.90;;;;;;5045416;28;20040;-74
2023/01/04 10:29:55;;;;;;;2.80;1.00;;;11.90;99.90;;;;;;5065479;28;20102;-74
2023/01/04 10:32:21;;;;;;;2.42;0.90;;;11.90;99.90;;;;;;5076543;28;20020;-74
2023/01/04 10:34:47;;;;;;;5.28;0.98;;;11.90;99.90;;;;;;5059130;28;20040;-74
2023/01/04 10:37:20;;;;;;;3.15;1.05;;;11.90;99.90;;;;;;5065216;28;20154;-74
2023/01/04 10:39:51;;;;;;;4.13;0.98;;;12.00;99.90;;;;;;5078388;28;20028;-74
2023/01/04 10:42:29;;;;;;;2.88;1.08;;;12.00;99.90;;;;;;5058464;28;20166;-74
2023/01/04 10:45:07;;;;;;;2.33;1.00;;;12.00;99.90;;;;;;5049685;28;20039;-74
2023/01/04 10:47:32;;;;;;;3.50;1.00;;;12.00;99.90;;;;;;5057812;28;20029;-74
2023/01/04 10:50:10;;;;;;;5.03;1.35;;;12.00;99.90;;;;;;5062200;28;20029;-74
2023/01/04 10:52:43;;;;;;;2.45;0.93;;;12.00;99.90;;;;;;5042501;28;20403;-74
2023/01/04 10:55:24;;;;;;;4.07;1.00;;;12.10;99.90;;;;;;5073884;28;20032;-74
2023/01/04 10:58:00;;;;;;;2.55;0.98;;;12.10;99.90;;;;;;5083228;28;20050;-75
2023/01/04 11:00:43;;;;;;;2.67;0.88;;;12.10;99.90;;;;;;5065953;28;20472;-74
2023/01/04 11:03:15;;;;;;;3.70;0.85;;;12.10;99.90;;;;;;5067609;28;20031;-74
2023/01/04 11:05:48;;;;;;;2.78;0.93;;;12.10;99.90;;;;;;5074969;28;20510;-74
2023/01/04 11:08:29;;;;;;;4.00;0.80;;;12.00;99.90;;;;;;5071979;28;20033;-74
2023/01/04 11:11:00;;;;;;;2.33;0.70;;;12.10;99.90;;;;;;5067586;28;20028;-74
2023/01/04 11:13:27;;;;;;;1.73;0.70;;;12.00;99.90;;;;;;5068770;28;20108;-74
2023/01/04 11:15:54;;;;;;;1.92;0.90;;;12.10;99.90;;;;;;5074293;28;20056;-73
2023/01/04 11:18:19;;;;;;;3.00;0.90;;;12.10;99.90;;;;;;5060993;28;20032;-76
2023/01/04 11:20:45;;;;;;;2.65;0.80;;;12.10;99.90;;;;;;5065443;28;20028;-74
2023/01/04 11:23:19;;;;;;;1.63;0.73;;;12.10;99.90;;;;;;5073721;28;20388;-74
2023/01/04 11:25:52;;;;;;;1.77;0.70;;;12.20;99.90;;;;;;5054414;28;20067;-74
2023/01/04 11:28:33;;;;;;;2.25;0.75;;;12.10;99.90;;;;;;5059132;28;22025;-74
2023/01/04 11:31:24;;;;;;;1.75;0.85;;;12.10;99.90;;;;;;5069735;28;20030;-74
2023/01/04 11:34:01;;;;;;;4.32;1.05;;;12.10;99.90;;;;;;5068172;28;20040;-74
2023/01/04 11:36:32;;;;;;;1.48;0.90;;;12.20;99.90;;;;;;5069806;28;20051;-74
2023/01/04 11:38:58;;;;;;;1.73;0.70;;;12.20;99.90;;;;;;5072953;28;20391;-74
2023/01/04 11:41:24;;;;;;;3.85;1.00;;;12.20;99.90;;;;;;5059552;28;20052;-73
2023/01/04 11:43:58;;;;;;;3.83;2.67;;;12.20;99.90;;;;;;5070603;28;20025;-74
2023/01/04 11:46:25;;;;;;;5.22;3.30;;;12.20;99.90;;;;;;5080619;28;20020;-74
2023/01/04 11:48:52;;;;;;;4.80;2.00;;;12.20;99.90;;;;;;5065763;28;20021;-74
2023/01/04 11:51:30;;;;;;;2.63;1.10;;;12.10;99.90;;;;;;5062456;28;20029;-74
2023/01/04 11:54:12;;;;;;;2.50;0.65;;;12.10;99.90;;;;;;5064134;28;20017;-74
2023/01/04 11:56:38;;;;;;;2.60;0.60;;;12.10;99.90;;;;;;5081371;28;20096;-74
2023/01/04 11:59:13;;;;;;;2.15;0.60;;;12.10;99.90;;;;;;5076162;28;20043;-74
2023/01/04 12:01:41;;;;;;;1.63;0.60;;;12.10;99.90;;;;;;5071946;28;20024;-74
2023/01/04 12:04:17;;;;;;;1.85;0.73;;;12.10;99.90;;;;;;5070500;28;20471;-74
2023/01/04 12:07:06;;;;;;;2.10;0.70;;;12.20;99.90;;;;;;5086823;28;20030;-74
2023/01/04 12:09:31;;;;;;;1.10;0.65;;;12.20;99.90;;;;;;5080772;28;20024;-74
2023/01/04 12:12:00;;;;;;;1.15;0.90;;;12.20;99.90;;;;;;5082432;28;20021;-74
2023/01/04 12:14:33;;;;;;;1.23;0.70;;;12.20;99.90;;;;;;5056649;28;20044;-74
2023/01/04 12:17:22;;;;;;;2.10;0.75;;;12.30;99.90;;;;;;5070835;28;20020;-74
2023/01/04 12:19:49;;;;;;;1.40;0.80;;;12.30;99.90;;;;;;5087113;28;20020;-74
2023/01/04 12:22:37;;;;;;;1.58;0.70;;;12.40;99.90;;;;;;5053789;28;20021;-74
2023/01/04 12:25:28;;;;;;;1.35;0.70;;;12.40;99.90;;;;;;5058829;28;20079;-75
2023/01/04 12:27:54;;;;;;;1.30;0.57;;;12.50;99.90;;;;;;5052307;28;20481;-74
2023/01/04 12:30:40;;;;;;;2.35;0.70;;;12.50;99.90;;;;;;5090153;28;20032;-74
2023/01/04 12:33:31;;;;;;;1.20;0.70;;;12.60;99.90;;;;;;5082456;28;20035;-74
2023/01/04 12:36:02;;;;;;;1.45;0.57;;;12.60;99.90;;;;;;5092691;28;20041;-74
2023/01/04 12:38:53;;;;;;;2.65;0.70;;;12.70;99.90;;;;;;5092978;28;20020;-74
2023/01/04 12:41:19;;;;;;;2.85;0.57;;;12.80;99.90;;;;;;5076330;28;20063;-74
2023/01/04 12:43:46;;;;;;;2.40;0.60;;;12.80;99.90;;;;;;5059875;28;20036;-74
2023/01/04 12:49:27;;;;;;;4.88;0.70;;;12.90;99.90;;;;;;5053177;28;20094;-74
2023/01/04 12:52:07;;;;;;;3.50;0.60;;;12.90;99.90;;;;;;5077707;28;20089;-74
2023/01/04 12:54:48;;;;;;;1.58;0.60;;;12.90;99.90;;;;;;5071651;28;20118;-75
2023/01/04 12:57:16;;;;;;;2.25;0.60;;;13.00;99.90;;;;;;5081460;28;20024;-74
2023/01/04 13:00:00;;;;;;;2.45;0.60;;;13.00;99.90;;;;;;5058347;28;20029;-74
2023/01/04 13:02:30;;;;;;;2.13;0.50;;;13.10;99.90;;;;;;5069601;28;20031;-74
2023/01/04 13:05:15;;;;;;;2.78;1.10;;;13.10;99.90;;;;;;5060150;28;20107;-75
2023/01/04 13:07:47;;;;;;;1.98;0.80;;;13.10;99.90;;;;;;5051848;28;20027;-74
2023/01/04 13:10:37;;;;;;;2.63;0.50;;;13.10;99.90;;;;;;5088558;28;20030;-74
2023/01/04 13:13:45;;;;;;;4.05;0.85;;;13.10;99.90;;;;;;5068747;28;20036;-75
2023/01/04 13:16:10;;;;;;;1.65;0.50;;;13.10;99.90;;;;;;5045105;28;20056;-74
2023/01/04 13:18:40;;;;;;;1.58;0.60;;;13.10;99.90;;;;;;5063732;28;20024;-73
2023/01/04 13:21:16;;;;;;;2.30;0.70;;;13.10;99.90;;;;;;5071951;28;20024;-74
2023/01/04 13:23:54;;;;;;;5.57;0.80;;;13.20;99.90;;;;;;5057194;28;20082;-74
2023/01/04 13:26:36;;;;;;;4.22;0.70;;;13.10;99.90;;;;;;5047081;28;20024;-75
2023/01/04 13:29:29;;;;;;;4.65;0.75;;;13.20;99.90;;;;;;5063582;28;20036;-74
2023/01/04 13:32:02;;;;;;;2.90;0.60;;;13.20;99.90;;;;;;5087406;28;20077;-74
2023/01/04 13:34:35;;;;;;;1.63;0.50;;;13.20;99.90;;;;;;5075023;28;20079;-74
2023/01/04 13:37:09;;;;;;;2.10;0.65;;;13.10;99.90;;;;;;5062341;28;20427;-74
2023/01/04 13:39:38;;;;;;;2.38;0.60;;;13.20;99.90;;;;;;5060841;28;20159;-74
2023/01/04 13:42:05;;;;;;;2.78;0.70;;;13.20;99.90;;;;;;5055979;28;20052;-74
2023/01/04 13:44:43;;;;;;;3.17;1.00;;;13.20;99.90;;;;;;5063465;28;20020;-74
2023/01/04 13:47:09;;;;;;;4.78;0.60;;;13.20;99.90;;;;;;5069282;28;20025;-74
2023/01/04 13:49:39;;;;;;;4.57;0.50;;;13.20;99.90;;;;;;5061541;28;20499;-74
2023/01/04 13:52:37;;;;;;;1.80;0.50;;;13.20;99.90;;;;;;5079915;28;20025;-74